createdAt,value
2019-02-09T00:00:57.000Z,11.40
2019-02-09T00:01:38.948Z,15.70
2019-02-09T00:02:17.644Z,13.07
2019-02-09T00:02:57.095Z,13.90
2019-02-09T00:03:35.742Z,10.90
2019-02-09T00:04:15.464Z,13.78
2019-02-09T00:04:54.108Z,11.50
2019-02-09T00:05:32.872Z,13.37
2019-02-09T00:06:11.587Z,15.13
2019-02-09T00:06:50.866Z,12.37
2019-02-09T00:07:29.772Z,14.53
2019-02-09T00:08:09.142Z,12.30
2019-02-09T00:08:48.224Z,14.13
2019-02-09T00:09:26.962Z,12.83
2019-02-09T00:10:05.879Z,12.03
2019-02-09T00:10:45.389Z,12.50
2019-02-09T00:11:24.106Z,12.77
2019-02-09T00:12:03.811Z,11.77
2019-02-09T00:12:42.470Z,17.00
2019-02-09T00:13:21.167Z,11.57
2019-02-09T00:14:00.487Z,15.63
2019-02-09T00:14:39.663Z,15.00
2019-02-09T00:15:19.396Z,13.00
2019-02-09T00:15:58.977Z,14.83
2019-02-09T00:16:39.390Z,11.20
2019-02-09T00:17:18.432Z,12.73
2019-02-09T00:17:57.854Z,11.25
2019-02-09T00:18:37.445Z,14.20
2019-02-09T00:19:17.748Z,11.47
2019-02-09T00:19:56.797Z,15.03
2019-02-09T00:20:35.489Z,12.13
2019-02-09T00:21:14.165Z,13.67
2019-02-09T00:21:52.888Z,13.10
2019-02-09T00:22:32.219Z,11.67
2019-02-09T00:23:11.253Z,11.53
2019-02-09T00:23:49.992Z,15.03
2019-02-09T00:24:29.244Z,12.13
2019-02-09T00:25:08.577Z,13.53
2019-02-09T00:25:48.134Z,13.10
2019-02-09T00:26:27.390Z,13.30
2019-02-09T00:27:07.202Z,11.70
2019-02-09T00:27:47.561Z,12.57
2019-02-09T00:28:26.860Z,13.27
2019-02-09T00:29:05.509Z,17.83
2019-02-09T00:29:46.364Z,12.40
2019-02-09T00:30:24.458Z,12.73
2019-02-09T00:31:03.139Z,18.03
2019-02-09T00:31:41.926Z,13.07
2019-02-09T00:32:20.575Z,14.30
2019-02-09T00:32:59.889Z,12.27
2019-02-09T00:33:39.222Z,12.33
2019-02-09T00:34:18.478Z,15.87
2019-02-09T00:34:57.781Z,13.83
2019-02-09T00:35:37.221Z,15.13
2019-02-09T00:36:16.400Z,14.10
2019-02-09T00:36:56.219Z,17.10
2019-02-09T00:37:34.915Z,14.03
2019-02-09T00:38:13.626Z,13.20
2019-02-09T00:38:53.337Z,12.73
2019-02-09T00:39:32.177Z,12.37
2019-02-09T00:40:11.571Z,11.87
2019-02-09T00:40:50.898Z,14.20
2019-02-09T00:41:30.381Z,12.93
2019-02-09T00:42:09.849Z,11.60
2019-02-09T00:43:07.196Z,16.57
2019-02-09T00:43:46.666Z,14.50
2019-02-09T00:44:25.613Z,15.43
2019-02-09T00:45:04.885Z,13.80
2019-02-09T00:45:43.755Z,15.97
2019-02-09T00:46:22.613Z,11.83
2019-02-09T00:47:01.492Z,13.07
2019-02-09T00:47:40.792Z,11.30
2019-02-09T00:48:20.140Z,15.77
2019-02-09T00:48:59.382Z,13.40
2019-02-09T00:49:38.356Z,12.10
2019-02-09T00:50:17.177Z,11.67
2019-02-09T00:50:55.881Z,15.73
2019-02-09T00:51:34.984Z,14.07
2019-02-09T00:52:14.626Z,19.53
2019-02-09T00:52:53.318Z,17.47
2019-02-09T00:53:32.395Z,12.60
2019-02-09T00:54:11.476Z,14.60
2019-02-09T00:54:51.303Z,14.63
2019-02-09T00:55:30.824Z,14.63
2019-02-09T00:56:10.150Z,16.20
2019-02-09T00:56:50.759Z,12.13
2019-02-09T00:57:29.667Z,12.90
2019-02-09T00:58:08.503Z,14.60
2019-02-09T00:58:47.237Z,17.43
2019-02-09T00:59:25.910Z,13.20
2019-02-09T01:00:05.151Z,16.83
2019-02-09T01:00:44.003Z,13.43
2019-02-09T01:01:22.813Z,15.70
2019-02-09T01:02:02.122Z,14.47
2019-02-09T01:02:41.204Z,12.67
2019-02-09T01:03:20.648Z,14.33
2019-02-09T01:04:00.067Z,16.20
2019-02-09T01:04:38.698Z,13.53
2019-02-09T01:05:17.989Z,13.93
2019-02-09T01:05:56.742Z,15.57
2019-02-09T01:06:35.485Z,15.00
2019-02-09T01:07:14.286Z,15.83
2019-02-09T01:07:53.067Z,14.40
2019-02-09T01:08:32.471Z,17.03
2019-02-09T01:09:15.556Z,17.80
2019-02-09T01:09:54.265Z,13.97
2019-02-09T01:10:34.162Z,14.67
2019-02-09T01:11:13.452Z,13.47
2019-02-09T01:11:53.451Z,14.30
2019-02-09T01:12:32.394Z,15.40
2019-02-09T01:13:11.697Z,15.00
2019-02-09T01:13:50.769Z,14.90
2019-02-09T01:14:30.195Z,14.93
2019-02-09T01:15:10.432Z,16.50
2019-02-09T01:15:49.189Z,16.60
2019-02-09T01:16:27.998Z,14.83
2019-02-09T01:17:07.223Z,18.50
2019-02-09T01:17:46.786Z,16.00
2019-02-09T01:18:25.673Z,15.90
2019-02-09T01:19:04.768Z,16.83
2019-02-09T01:19:43.866Z,16.30
2019-02-09T01:20:24.606Z,16.10
2019-02-09T01:21:04.222Z,14.40
2019-02-09T01:21:43.776Z,15.23
2019-02-09T01:22:22.778Z,15.73
2019-02-09T01:23:01.807Z,15.67
2019-02-09T01:23:40.694Z,16.17
2019-02-09T01:24:20.243Z,18.13
2019-02-09T01:24:58.977Z,15.30
2019-02-09T01:25:37.624Z,16.50
2019-02-09T01:26:16.821Z,15.70
2019-02-09T01:26:55.874Z,17.00
2019-02-09T01:27:35.045Z,15.80
2019-02-09T01:28:15.036Z,17.37
2019-02-09T01:28:55.089Z,17.43
2019-02-09T01:29:34.377Z,16.07
2019-02-09T01:30:16.210Z,17.07
2019-02-09T01:30:55.096Z,18.63
2019-02-09T01:31:34.229Z,18.10
2019-02-09T01:32:13.411Z,17.13
2019-02-09T01:32:52.171Z,16.03
2019-02-09T01:33:30.895Z,18.23
2019-02-09T01:34:10.881Z,16.43
2019-02-09T01:34:50.087Z,15.60
2019-02-09T01:35:28.801Z,18.80
2019-02-09T01:36:07.682Z,17.10
2019-02-09T01:36:46.424Z,21.47
2019-02-09T01:37:26.757Z,20.63
2019-02-09T01:38:05.828Z,17.93
2019-02-09T01:38:44.881Z,16.87
2019-02-09T01:39:24.215Z,17.60
2019-02-09T01:40:03.274Z,15.80
2019-02-09T01:40:42.541Z,16.93
2019-02-09T01:41:21.281Z,16.03
2019-02-09T01:41:59.962Z,19.80
2019-02-09T01:42:38.621Z,21.37
2019-02-09T01:43:17.329Z,19.97
2019-02-09T01:43:56.367Z,17.53
2019-02-09T01:44:35.494Z,17.33
2019-02-09T01:45:17.193Z,17.23
2019-02-09T01:45:56.449Z,16.17
2019-02-09T01:46:35.700Z,17.67
2019-02-09T01:47:15.144Z,16.40
2019-02-09T01:47:54.824Z,17.40
2019-02-09T01:48:34.099Z,18.03
2019-02-09T01:49:13.271Z,17.87
2019-02-09T01:49:53.129Z,16.33
2019-02-09T01:50:33.045Z,17.50
2019-02-09T01:51:12.545Z,17.80
2019-02-09T01:51:51.289Z,16.50
2019-02-09T01:52:31.051Z,18.60
2019-02-09T01:53:10.085Z,18.23
2019-02-09T01:53:48.765Z,17.07
2019-02-09T01:54:27.564Z,16.20
2019-02-09T01:55:06.826Z,17.33
2019-02-09T01:55:45.561Z,17.33
2019-02-09T01:56:24.893Z,16.67
2019-02-09T01:57:04.465Z,17.83
2019-02-09T01:57:44.022Z,17.10
2019-02-09T01:58:24.659Z,16.43
2019-02-09T01:59:03.344Z,16.80
2019-02-09T01:59:42.107Z,18.20
2019-02-09T02:00:25.426Z,16.83
2019-02-09T02:01:04.177Z,16.87
2019-02-09T02:01:43.459Z,17.47
2019-02-09T02:02:22.131Z,16.87
2019-02-09T02:03:01.402Z,17.20
2019-02-09T02:03:40.162Z,16.67
2019-02-09T02:04:19.362Z,16.97
2019-02-09T02:04:58.110Z,16.90
2019-02-09T02:05:37.181Z,16.33
2019-02-09T02:06:16.013Z,17.97
2019-02-09T02:06:55.262Z,17.97
2019-02-09T02:07:34.679Z,20.23
2019-02-09T02:08:14.186Z,17.63
2019-02-09T02:08:52.960Z,17.17
2019-02-09T02:09:31.668Z,17.67
2019-02-09T02:10:12.760Z,19.33
2019-02-09T02:10:51.626Z,18.77
2019-02-09T02:11:30.373Z,17.77
2019-02-09T02:12:09.625Z,17.23
2019-02-09T02:12:48.581Z,17.03
2019-02-09T02:13:27.949Z,16.97
2019-02-09T02:14:07.258Z,18.73
2019-02-09T02:14:46.472Z,16.20
2019-02-09T02:15:25.692Z,16.10
2019-02-09T02:16:05.062Z,19.53
2019-02-09T02:16:43.755Z,17.63
2019-02-09T02:17:22.477Z,16.30
2019-02-09T02:18:01.207Z,16.60
2019-02-09T02:18:39.910Z,16.40
2019-02-09T02:19:18.928Z,15.50
2019-02-09T02:19:58.432Z,16.60
2019-02-09T02:20:38.421Z,16.73
2019-02-09T02:21:18.104Z,17.47
2019-02-09T02:21:57.676Z,16.63
2019-02-09T02:22:36.943Z,19.40
2019-02-09T02:23:16.429Z,16.17
2019-02-09T02:23:55.615Z,17.17
2019-02-09T02:24:34.941Z,17.50
2019-02-09T02:25:13.661Z,15.13
2019-02-09T02:25:52.417Z,16.47
2019-02-09T02:26:31.501Z,17.13
2019-02-09T02:27:10.281Z,16.17
2019-02-09T02:27:49.370Z,15.50
2019-02-09T02:28:28.548Z,16.53
2019-02-09T02:29:08.419Z,15.47
2019-02-09T02:29:47.944Z,15.07
2019-02-09T02:30:28.740Z,15.50
2019-02-09T02:31:07.748Z,15.23
2019-02-09T02:31:47.094Z,17.03
2019-02-09T02:32:26.358Z,15.37
2019-02-09T02:33:05.764Z,15.37
2019-02-09T02:33:44.392Z,16.93
2019-02-09T02:34:23.126Z,15.93
2019-02-09T02:35:01.910Z,17.40
2019-02-09T02:35:40.918Z,15.87
2019-02-09T02:36:20.250Z,17.20
2019-02-09T02:36:59.280Z,16.17
2019-02-09T02:37:38.466Z,16.03
2019-02-09T02:38:17.757Z,15.53
2019-02-09T02:38:57.273Z,16.30
2019-02-09T02:39:36.663Z,16.73
2019-02-09T02:40:15.665Z,15.80
2019-02-09T02:40:54.931Z,15.77
2019-02-09T02:41:34.126Z,15.40
2019-02-09T02:42:13.130Z,16.43
2019-02-09T02:42:51.925Z,16.20
2019-02-09T02:43:30.631Z,16.30
2019-02-09T02:44:09.858Z,15.30
2019-02-09T02:44:49.171Z,16.33
2019-02-09T02:45:28.595Z,15.80
2019-02-09T02:46:07.817Z,15.93
2019-02-09T02:46:47.113Z,15.13
2019-02-09T02:47:26.486Z,16.13
2019-02-09T02:48:05.927Z,16.10
2019-02-09T02:48:45.268Z,15.83
2019-02-09T02:49:23.920Z,15.67
2019-02-09T02:50:02.676Z,15.53
2019-02-09T02:50:41.956Z,15.90
2019-02-09T02:51:20.733Z,15.53
2019-02-09T02:51:59.407Z,14.63
2019-02-09T02:52:38.828Z,16.33
2019-02-09T02:53:17.997Z,15.93
2019-02-09T02:53:57.433Z,17.10
2019-02-09T02:54:37.406Z,15.47
2019-02-09T02:55:21.021Z,16.40
2019-02-09T02:56:00.353Z,16.10
2019-02-09T02:56:41.009Z,16.60
2019-02-09T02:57:20.324Z,17.97
2019-02-09T02:57:59.632Z,16.33
2019-02-09T02:58:38.842Z,15.33
2019-02-09T02:59:18.053Z,16.80
2019-02-09T02:59:57.648Z,15.87
2019-02-09T03:00:36.281Z,15.23
2019-02-09T03:01:15.477Z,16.00
2019-02-09T03:01:54.726Z,16.37
2019-02-09T03:02:34.320Z,15.00
2019-02-09T03:03:15.466Z,14.63
2019-02-09T03:03:54.189Z,15.03
2019-02-09T03:04:33.120Z,15.70
2019-02-09T03:05:13.754Z,16.57
2019-02-09T03:05:52.741Z,15.50
2019-02-09T03:06:31.780Z,14.43
2019-02-09T03:07:11.446Z,14.83
2019-02-09T03:07:50.221Z,14.80
2019-02-09T03:08:29.571Z,13.90
2019-02-09T03:09:12.268Z,15.70
2019-02-09T03:09:50.509Z,17.70
2019-02-09T03:10:29.829Z,14.73
2019-02-09T03:11:08.510Z,14.37
2019-02-09T03:11:47.306Z,14.90
2019-02-09T03:12:25.990Z,15.70
2019-02-09T03:13:04.645Z,15.17
2019-02-09T03:13:43.707Z,14.10
2019-02-09T03:14:22.998Z,15.53
2019-02-09T03:15:01.743Z,15.17
2019-02-09T03:15:41.470Z,15.70
2019-02-09T03:16:21.003Z,15.00
2019-02-09T03:17:00.049Z,13.83
2019-02-09T03:17:39.402Z,16.17
2019-02-09T03:18:18.031Z,14.27
2019-02-09T03:18:57.427Z,14.20
2019-02-09T03:19:36.544Z,15.27
2019-02-09T03:20:16.948Z,15.03
2019-02-09T03:20:55.973Z,15.90
2019-02-09T03:21:34.725Z,14.43
2019-02-09T03:22:13.623Z,16.23
2019-02-09T03:22:53.061Z,15.10
2019-02-09T03:23:32.914Z,14.53
2019-02-09T03:24:12.438Z,15.00
2019-02-09T03:24:51.827Z,15.07
2019-02-09T03:25:32.814Z,13.73
2019-02-09T03:26:12.187Z,15.60
2019-02-09T03:26:50.846Z,15.83
2019-02-09T03:27:29.546Z,13.87
2019-02-09T03:28:08.295Z,13.70
2019-02-09T03:28:46.988Z,14.67
2019-02-09T03:29:25.666Z,14.63
2019-02-09T03:30:04.660Z,14.90
2019-02-09T03:30:47.445Z,15.03
2019-02-09T03:31:24.145Z,15.00
2019-02-09T03:32:03.442Z,15.23
2019-02-09T03:32:42.641Z,13.97
2019-02-09T03:33:22.259Z,17.30
2019-02-09T03:34:02.190Z,14.63
2019-02-09T03:34:41.812Z,15.60
2019-02-09T03:35:21.205Z,14.47
2019-02-09T03:35:59.995Z,14.20
2019-02-09T03:36:39.460Z,17.70
2019-02-09T03:37:18.372Z,15.03
2019-02-09T03:37:57.968Z,14.87
2019-02-09T03:38:36.710Z,14.73
2019-02-09T03:39:15.715Z,15.47
2019-02-09T03:39:54.479Z,15.27
2019-02-09T03:40:34.194Z,15.53
2019-02-09T03:41:13.443Z,15.13
2019-02-09T03:41:52.693Z,17.30
2019-02-09T03:42:31.750Z,15.20
2019-02-09T03:43:11.285Z,15.17
2019-02-09T03:43:49.980Z,14.67
2019-02-09T03:44:28.979Z,14.77
2019-02-09T03:45:09.061Z,15.03
2019-02-09T03:45:48.149Z,15.03
2019-02-09T03:46:26.875Z,14.70
2019-02-09T03:47:05.965Z,14.50
2019-02-09T03:47:45.088Z,13.33
2019-02-09T03:48:24.629Z,13.77
2019-02-09T03:49:03.886Z,14.23
2019-02-09T03:49:43.150Z,16.50
2019-02-09T03:50:22.510Z,15.73
2019-02-09T03:51:02.520Z,13.77
2019-02-09T03:51:41.741Z,14.63
2019-02-09T03:52:21.022Z,14.50
2019-02-09T03:52:59.818Z,15.50
2019-02-09T03:53:39.065Z,13.63
2019-02-09T03:54:17.747Z,14.23
2019-02-09T03:54:56.492Z,14.40
2019-02-09T03:55:35.668Z,14.80
2019-02-09T03:56:15.046Z,14.00
2019-02-09T03:56:54.780Z,15.40
2019-02-09T03:57:33.652Z,15.17
2019-02-09T03:58:12.892Z,15.00
2019-02-09T03:58:52.225Z,16.17
2019-02-09T03:59:31.526Z,16.10
2019-02-09T04:00:17.310Z,14.30
2019-02-09T04:00:56.194Z,14.67
2019-02-09T04:01:35.670Z,14.57
2019-02-09T04:02:15.217Z,16.23
2019-02-09T04:02:53.966Z,15.20
2019-02-09T04:03:32.707Z,16.00
2019-02-09T04:04:12.027Z,14.50
2019-02-09T04:04:50.737Z,15.47
2019-02-09T04:05:30.017Z,14.53
2019-02-09T04:06:09.053Z,16.50
2019-02-09T04:06:48.362Z,16.17
2019-02-09T04:07:27.330Z,16.70
2019-02-09T04:08:06.407Z,15.83
2019-02-09T04:08:45.671Z,16.53
2019-02-09T04:09:25.031Z,17.70
2019-02-09T04:10:04.536Z,15.60
2019-02-09T04:10:43.324Z,15.57
2019-02-09T04:11:22.660Z,15.00
2019-02-09T04:12:01.671Z,15.07
2019-02-09T04:12:41.062Z,17.20
2019-02-09T04:13:19.718Z,16.30
2019-02-09T04:13:58.432Z,15.07
2019-02-09T04:14:37.600Z,16.23
2019-02-09T04:15:17.386Z,15.77
2019-02-09T04:15:56.686Z,14.53
2019-02-09T04:16:36.329Z,14.93
2019-02-09T04:17:15.268Z,16.57
2019-02-09T04:17:55.160Z,15.53
2019-02-09T04:18:34.619Z,14.97
2019-02-09T04:19:13.368Z,14.57
2019-02-09T04:19:52.084Z,14.63
2019-02-09T04:20:30.831Z,16.10
2019-02-09T04:21:10.116Z,14.97
2019-02-09T04:21:49.145Z,15.13
2019-02-09T04:22:27.980Z,14.87
2019-02-09T04:23:06.823Z,14.77
2019-02-09T04:23:45.644Z,15.33
2019-02-09T04:24:25.000Z,14.67
2019-02-09T04:25:04.501Z,15.27
2019-02-09T04:25:43.671Z,15.70
2019-02-09T04:26:23.253Z,15.57
2019-02-09T04:27:02.746Z,15.63
2019-02-09T04:27:41.490Z,15.47
2019-02-09T04:28:20.124Z,15.20
2019-02-09T04:28:59.340Z,15.83
2019-02-09T04:29:38.261Z,15.50
2019-02-09T04:30:19.833Z,15.70
2019-02-09T04:31:05.980Z,16.13
2019-02-09T04:31:39.264Z,16.87
2019-02-09T04:32:18.401Z,17.73
2019-02-09T04:32:57.278Z,16.03
2019-02-09T04:33:36.733Z,18.13
2019-02-09T04:34:15.987Z,14.40
2019-02-09T04:34:55.406Z,18.13
2019-02-09T04:35:34.777Z,16.67
2019-02-09T04:36:13.372Z,14.83
2019-02-09T04:36:52.020Z,15.50
2019-02-09T04:37:31.196Z,16.57
2019-02-09T04:38:10.144Z,15.20
2019-02-09T04:38:48.993Z,16.30
2019-02-09T04:39:28.017Z,15.30
2019-02-09T04:40:08.330Z,15.80
2019-02-09T04:40:47.813Z,14.10
2019-02-09T04:41:27.126Z,16.40
2019-02-09T04:42:06.317Z,15.87
2019-02-09T04:42:45.032Z,15.43
2019-02-09T04:43:23.969Z,15.63
2019-02-09T04:44:03.316Z,16.10
2019-02-09T04:44:41.995Z,14.43
2019-02-09T04:45:20.918Z,15.57
2019-02-09T04:45:59.560Z,19.60
2019-02-09T04:46:38.259Z,15.87
2019-02-09T04:47:17.559Z,16.30
2019-02-09T04:47:58.207Z,17.77
2019-02-09T04:48:37.627Z,16.40
2019-02-09T04:49:17.056Z,16.80
2019-02-09T04:49:56.913Z,14.60
2019-02-09T04:50:36.199Z,16.03
2019-02-09T04:51:14.868Z,16.40
2019-02-09T04:51:54.243Z,16.33
2019-02-09T04:52:34.090Z,17.50
2019-02-09T04:53:12.883Z,15.90
2019-02-09T04:53:52.300Z,14.97
2019-02-09T04:54:30.967Z,15.60
2019-02-09T04:55:11.048Z,15.90
2019-02-09T04:55:49.919Z,15.30
2019-02-09T04:56:28.968Z,14.77
2019-02-09T04:57:07.655Z,16.40
2019-02-09T04:57:47.027Z,17.40
2019-02-09T04:58:26.509Z,16.27
2019-02-09T04:59:07.015Z,15.43
2019-02-09T04:59:45.817Z,18.03
2019-02-09T05:00:29.363Z,15.03
2019-02-09T05:01:14.149Z,15.80
2019-02-09T05:01:50.241Z,15.53
2019-02-09T05:02:29.495Z,15.30
2019-02-09T05:03:08.850Z,15.97
2019-02-09T05:03:47.567Z,15.20
2019-02-09T05:04:26.288Z,14.70
2019-02-09T05:05:04.948Z,15.30
2019-02-09T05:06:02.088Z,14.60
2019-02-09T05:06:41.232Z,13.90
2019-02-09T05:07:19.927Z,14.70
2019-02-09T05:07:58.579Z,16.03
2019-02-09T05:08:37.348Z,14.87
2019-02-09T05:09:16.182Z,14.23
2019-02-09T05:09:56.003Z,16.00
2019-02-09T05:10:34.724Z,15.53
2019-02-09T05:11:13.512Z,15.43
2019-02-09T05:11:52.346Z,15.60
2019-02-09T05:12:31.257Z,15.47
2019-02-09T05:13:10.685Z,14.90
2019-02-09T05:13:49.777Z,14.13
2019-02-09T05:14:29.034Z,16.23
2019-02-09T05:15:08.385Z,14.60
2019-02-09T05:15:47.132Z,14.97
2019-02-09T05:16:25.794Z,15.33
2019-02-09T05:17:04.483Z,13.97
2019-02-09T05:17:43.254Z,14.83
2019-02-09T05:18:22.492Z,15.23
2019-02-09T05:19:01.624Z,14.70
2019-02-09T05:19:40.979Z,14.00
2019-02-09T05:20:24.856Z,14.93
2019-02-09T05:21:03.908Z,15.27
2019-02-09T05:21:42.904Z,14.07
2019-02-09T05:22:21.979Z,14.70
2019-02-09T05:23:01.240Z,13.87
2019-02-09T05:23:40.628Z,13.70
2019-02-09T05:24:19.646Z,14.30
2019-02-09T05:24:58.344Z,14.30
2019-02-09T05:25:37.026Z,14.70
2019-02-09T05:26:15.729Z,15.70
2019-02-09T05:26:55.004Z,14.93
2019-02-09T05:27:33.887Z,14.37
2019-02-09T05:28:12.705Z,13.50
2019-02-09T05:28:51.695Z,15.00
2019-02-09T05:29:31.122Z,13.90
2019-02-09T05:30:12.643Z,13.87
2019-02-09T05:30:51.786Z,14.23
2019-02-09T05:31:31.502Z,15.10
2019-02-09T05:32:10.247Z,14.60
2019-02-09T05:32:49.484Z,13.53
2019-02-09T05:33:28.663Z,12.97
2019-02-09T05:34:08.055Z,13.67
2019-02-09T05:34:46.751Z,14.33
2019-02-09T05:35:25.821Z,12.73
2019-02-09T05:36:04.554Z,13.67
2019-02-09T05:36:43.213Z,14.60
2019-02-09T05:37:22.722Z,13.43
2019-02-09T05:38:01.892Z,13.90
2019-02-09T05:38:41.170Z,12.60
2019-02-09T05:39:20.587Z,13.03
2019-02-09T05:39:59.975Z,13.03
2019-02-09T05:40:38.723Z,13.73
2019-02-09T05:41:18.766Z,14.43
2019-02-09T05:41:57.450Z,16.23
2019-02-09T05:42:36.575Z,12.43
2019-02-09T05:43:15.240Z,12.57
2019-02-09T05:43:54.518Z,13.53
2019-02-09T05:44:33.896Z,13.50
2019-02-09T05:45:17.677Z,13.03
2019-02-09T05:45:56.986Z,13.67
2019-02-09T05:46:35.750Z,12.70
2019-02-09T05:47:14.479Z,13.97
2019-02-09T05:47:53.715Z,13.33
2019-02-09T05:48:32.847Z,13.37
2019-02-09T05:49:12.088Z,14.00
2019-02-09T05:49:52.040Z,13.20
2019-02-09T05:50:30.741Z,13.37
2019-02-09T05:51:09.501Z,12.63
2019-02-09T05:51:48.221Z,13.23
2019-02-09T05:52:26.931Z,13.33
2019-02-09T05:53:05.836Z,13.73
2019-02-09T05:53:45.030Z,13.23
2019-02-09T05:54:25.455Z,14.97
2019-02-09T05:55:04.534Z,12.90
2019-02-09T05:55:43.911Z,12.80
2019-02-09T05:56:23.363Z,13.47
2019-02-09T05:57:02.726Z,14.07
2019-02-09T05:57:42.170Z,12.80
2019-02-09T05:58:20.925Z,14.30
2019-02-09T05:58:59.663Z,12.83
2019-02-09T05:59:38.297Z,12.53
2019-02-09T06:00:21.522Z,12.80
2019-02-09T06:01:00.536Z,13.33
2019-02-09T06:01:39.393Z,13.67
2019-02-09T06:02:18.342Z,12.93
2019-02-09T06:02:57.144Z,13.73
2019-02-09T06:03:35.950Z,13.73
2019-02-09T06:04:15.440Z,13.20
2019-02-09T06:04:55.276Z,14.17
2019-02-09T06:05:34.896Z,13.60
2019-02-09T06:06:14.269Z,11.97
2019-02-09T06:06:53.723Z,14.20
2019-02-09T06:07:32.491Z,13.37
2019-02-09T06:08:11.175Z,13.27
2019-02-09T06:08:50.184Z,13.60
2019-02-09T06:09:28.957Z,13.43
2019-02-09T06:10:08.590Z,13.70
2019-02-09T06:10:47.305Z,13.20
2019-02-09T06:11:26.295Z,13.20
2019-02-09T06:12:05.056Z,12.93
2019-02-09T06:12:44.337Z,13.60
2019-02-09T06:13:23.567Z,12.97
2019-02-09T06:14:02.742Z,13.97
2019-02-09T06:14:42.101Z,13.97
2019-02-09T06:15:21.903Z,12.20
2019-02-09T06:16:00.553Z,13.10
2019-02-09T06:16:39.822Z,12.87
2019-02-09T06:17:18.566Z,12.40
2019-02-09T06:17:57.397Z,13.60
2019-02-09T06:18:36.406Z,13.70
2019-02-09T06:19:15.850Z,12.40
2019-02-09T06:19:55.243Z,13.23
2019-02-09T06:20:33.950Z,13.60
2019-02-09T06:21:13.447Z,13.73
2019-02-09T06:21:53.066Z,14.03
2019-02-09T06:22:31.815Z,13.03
2019-02-09T06:23:11.246Z,12.47
2019-02-09T06:23:49.919Z,13.97
2019-02-09T06:24:28.591Z,14.23
2019-02-09T06:25:07.328Z,14.00
2019-02-09T06:25:46.511Z,14.07
2019-02-09T06:26:25.932Z,12.40
2019-02-09T06:27:05.422Z,13.40
2019-02-09T06:27:44.583Z,13.20
2019-02-09T06:28:23.814Z,13.87
2019-02-09T06:29:03.305Z,12.90
2019-02-09T06:29:42.667Z,13.60
2019-02-09T06:30:27.144Z,13.47
2019-02-09T06:31:06.263Z,13.23
2019-02-09T06:31:45.617Z,13.53
2019-02-09T06:32:25.011Z,12.87
2019-02-09T06:33:05.068Z,12.83
2019-02-09T06:33:43.807Z,12.47
2019-02-09T06:34:22.583Z,14.20
2019-02-09T06:35:01.341Z,13.30
2019-02-09T06:35:40.912Z,13.93
2019-02-09T06:36:20.363Z,13.23
2019-02-09T06:36:59.106Z,12.57
2019-02-09T06:37:39.063Z,12.20
2019-02-09T06:38:19.216Z,13.47
2019-02-09T06:38:58.604Z,12.83
2019-02-09T06:39:37.499Z,13.00
2019-02-09T06:40:17.497Z,14.10
2019-02-09T06:40:57.385Z,12.63
2019-02-09T06:41:36.723Z,12.40
2019-02-09T06:42:15.502Z,12.67
2019-02-09T06:42:54.231Z,12.47
2019-02-09T06:43:32.913Z,12.90
2019-02-09T06:44:11.626Z,13.03
2019-02-09T06:44:50.729Z,13.43
2019-02-09T06:45:29.560Z,13.40
2019-02-09T06:46:08.801Z,12.57
2019-02-09T06:46:47.723Z,13.30
2019-02-09T06:47:26.810Z,12.30
2019-02-09T06:48:40.275Z,13.83
2019-02-09T06:49:19.050Z,12.73
2019-02-09T06:49:57.840Z,13.03
2019-02-09T06:50:37.033Z,11.57
2019-02-09T06:51:16.088Z,11.70
2019-02-09T06:51:54.755Z,12.83
2019-02-09T06:52:34.559Z,12.07
2019-02-09T06:53:14.987Z,13.53
2019-02-09T06:53:54.434Z,12.10
2019-02-09T06:54:33.510Z,11.70
2019-02-09T06:55:13.719Z,12.80
2019-02-09T06:55:53.501Z,12.50
2019-02-09T06:56:32.274Z,13.17
2019-02-09T06:57:11.594Z,13.10
2019-02-09T06:57:50.553Z,12.87
2019-02-09T06:58:29.493Z,14.00
2019-02-09T06:59:08.297Z,13.33
2019-02-09T06:59:47.012Z,12.90
2019-02-09T07:00:26.438Z,12.33
2019-02-09T07:01:05.281Z,13.97
2019-02-09T07:01:48.863Z,13.03
2019-02-09T07:02:24.928Z,12.00
2019-02-09T07:03:03.825Z,13.13
2019-02-09T07:03:42.471Z,11.90
2019-02-09T07:04:21.278Z,12.43
2019-02-09T07:05:01.162Z,11.83
2019-02-09T07:05:40.059Z,11.90
2019-02-09T07:06:18.834Z,13.43
2019-02-09T07:06:57.633Z,12.93
2019-02-09T07:07:36.698Z,12.40
2019-02-09T07:08:16.749Z,13.30
2019-02-09T07:08:55.570Z,12.20
2019-02-09T07:09:34.990Z,13.70
2019-02-09T07:10:19.380Z,13.20
2019-02-09T07:10:58.911Z,13.30
2019-02-09T07:11:37.967Z,12.83
2019-02-09T07:12:16.913Z,12.53
2019-02-09T07:12:56.265Z,12.17
2019-02-09T07:13:35.020Z,12.93
2019-02-09T07:14:14.105Z,12.50
2019-02-09T07:14:54.506Z,14.93
2019-02-09T07:15:34.055Z,13.17
2019-02-09T07:16:13.913Z,13.17
2019-02-09T07:16:52.524Z,14.07
2019-02-09T07:17:34.457Z,13.47
2019-02-09T07:18:13.141Z,13.43
2019-02-09T07:18:52.878Z,12.57
2019-02-09T07:19:31.641Z,12.47
2019-02-09T07:20:11.815Z,12.60
2019-02-09T07:20:50.838Z,12.90
2019-02-09T07:21:30.082Z,12.90
2019-02-09T07:22:09.488Z,13.70
2019-02-09T07:22:51.398Z,13.07
2019-02-09T07:23:31.191Z,12.40
2019-02-09T07:24:10.753Z,16.30
2019-02-09T07:24:50.461Z,12.37
2019-02-09T07:25:30.128Z,13.93
2019-02-09T07:26:09.373Z,13.20
2019-02-09T07:26:48.466Z,11.67
2019-02-09T07:27:28.488Z,13.07
2019-02-09T07:28:08.290Z,14.53
2019-02-09T07:28:47.010Z,12.03
2019-02-09T07:29:26.521Z,13.47
2019-02-09T07:30:05.559Z,12.80
2019-02-09T07:30:44.377Z,13.00
2019-02-09T07:31:23.246Z,13.07
2019-02-09T07:32:02.154Z,13.40
2019-02-09T07:32:41.397Z,12.10
2019-02-09T07:33:20.445Z,12.63
2019-02-09T07:33:59.878Z,11.80
2019-02-09T07:34:39.277Z,12.20
2019-02-09T07:35:18.064Z,13.00
2019-02-09T07:35:56.730Z,12.43
2019-02-09T07:36:35.620Z,12.77
2019-02-09T07:37:14.322Z,12.63
2019-02-09T07:37:53.290Z,14.03
2019-02-09T07:38:32.236Z,11.97
2019-02-09T07:39:12.505Z,12.07
2019-02-09T07:39:51.604Z,12.67
2019-02-09T07:40:31.147Z,12.87
2019-02-09T07:41:10.429Z,12.50
2019-02-09T07:41:50.796Z,13.10
2019-02-09T07:42:30.330Z,13.30
2019-02-09T07:43:09.393Z,13.37
2019-02-09T07:43:48.126Z,12.43
2019-02-09T07:44:26.865Z,13.50
2019-02-09T07:45:05.603Z,13.57
2019-02-09T07:45:44.766Z,12.93
2019-02-09T07:46:23.542Z,13.37
2019-02-09T07:47:02.667Z,11.40
2019-02-09T07:47:41.986Z,12.10
2019-02-09T07:48:21.478Z,12.50
2019-02-09T07:49:00.901Z,13.20
2019-02-09T07:49:40.402Z,12.93
2019-02-09T07:50:20.939Z,12.87
2019-02-09T07:51:00.259Z,12.33
2019-02-09T07:51:39.911Z,12.83
2019-02-09T07:52:18.798Z,13.80
2019-02-09T07:52:57.559Z,13.83
2019-02-09T07:53:36.361Z,12.97
2019-02-09T07:54:15.451Z,13.80
2019-02-09T07:54:54.132Z,13.70
2019-02-09T07:55:33.436Z,13.03
2019-02-09T07:56:12.850Z,13.13
2019-02-09T07:56:52.682Z,12.67
2019-02-09T07:57:32.207Z,12.87
2019-02-09T07:58:11.509Z,12.97
2019-02-09T07:58:51.081Z,13.70
2019-02-09T07:59:31.145Z,13.00
2019-02-09T08:00:13.566Z,13.40
2019-02-09T08:00:53.069Z,13.67
2019-02-09T08:01:31.835Z,13.03
2019-02-09T08:02:10.576Z,15.47
2019-02-09T08:02:49.499Z,15.00
2019-02-09T08:03:28.713Z,13.63
2019-02-09T08:04:07.427Z,13.97
2019-02-09T08:04:46.843Z,13.17
2019-02-09T08:05:26.053Z,13.53
2019-02-09T08:06:05.006Z,13.20
2019-02-09T08:06:43.736Z,13.30
2019-02-09T08:07:22.943Z,12.83
2019-02-09T08:08:02.385Z,12.50
2019-02-09T08:08:41.692Z,11.77
2019-02-09T08:09:20.447Z,13.63
2019-02-09T08:09:59.154Z,13.37
2019-02-09T08:10:39.692Z,12.37
2019-02-09T08:11:18.216Z,14.23
2019-02-09T08:11:57.658Z,13.70
2019-02-09T08:12:37.506Z,12.10
2019-02-09T08:13:16.194Z,12.83
2019-02-09T08:13:55.015Z,12.80
2019-02-09T08:14:34.357Z,13.57
2019-02-09T08:15:16.610Z,13.33
2019-02-09T08:15:55.312Z,12.70
2019-02-09T08:16:34.655Z,13.37
2019-02-09T08:17:13.329Z,13.13
2019-02-09T08:17:52.723Z,13.70
2019-02-09T08:18:31.894Z,13.03
2019-02-09T08:19:10.790Z,12.93
2019-02-09T08:19:50.225Z,13.63
2019-02-09T08:20:30.407Z,13.90
2019-02-09T08:21:09.108Z,12.03
2019-02-09T08:21:47.815Z,13.23
2019-02-09T08:22:27.640Z,12.87
2019-02-09T08:23:06.930Z,13.23
2019-02-09T08:23:46.241Z,12.43
2019-02-09T08:24:25.279Z,12.93
2019-02-09T08:25:05.629Z,12.93
2019-02-09T08:25:45.197Z,12.70
2019-02-09T08:26:24.976Z,12.27
2019-02-09T08:27:04.467Z,13.87
2019-02-09T08:27:43.240Z,13.00